Archival Weather

Chicago O'Hare International

Chicago, Illinois (KORD)

Report from: Saturday, March 18, 2023 10:51 PM CDT
Current time: Monday, June 17, 2024 4:50 AM CDT

Current weather – Weather history – Daily summaries
Weather forecast

Temperature-5.6°C (21.9°F)
Wind chill-12.0°C (10.4°F)
Dew point-12.8°C (9.0°F)
Winds 10 kts (5.1 m/s, 11.5 mph) West (280°)
Visibility10 mi. (16.1 km)
Clouds Sky clear
Altimeter30.18 in.Hg (1022 mB)
Relative humidity57 %
Density altitude-2,849 ft. (-868 m)
Sea-level pressure102.3 kPa (1023 mB, 30.22 in.Hg)
Remarks System requires maintenance
Automated weather observing station with precipitation discriminator
Flight conditions Visual Meteorological Conditions
Raw dataKORD 190351Z 28010KT 10SM CLR M06/M13 A3018 RMK AO2 SLP232 T10561128 $
An error has occurred. This application may no longer respond until reloaded. Reload 🗙